Pagrindinis puslapis
METAR-TAF:

METAR-TAF

Oro uostai :

Buriram, Tailandas

platuma: 15-13-46N, ilguma: 103-15-04E, Aukštis: 180 m

Dabartinis oras

Ataskaita buvo paskelbta 57 minutes, ne 04:00 UTC
Vėjas 6 kt iš Pietų/Pietryčių, svyruoja nuo Pietryčių ir Pietų/Pietvakarių
Temperatūra 33°C
Drėgmė 49%
Slėgis 1014 hPa
Matomumas: 8000 m
Mažai debesys ne aukštis 3500 ft

METAR: VTUO 020400Z 16006KT 130V210 8000 FEW035 33/21 Q1014 NOSIG

Laikas: 11:57 (04:57 UTC)

Prognozė

Ataskaita buvo paskelbta 5 valandos ir 57 minutes, ne 23:00 UTC
Prognozė galioja nuo 02 metu 00 UTC su 02 metu 24 UTC
Vėjas 5 kt iš Pietų/Pietvakarių
Matomumas: 8000 m

TAF: VTUO 012300Z 0200/0224 20005KT 8000 NSC

Orai ataskaitas ir orų prognozės (METAR, TAF).

turimą stotys yra geltonos ir raudonos taškus žemėlapyje.

Perkelti pele per norėdami pamatyti stoties vardą.

Tada spustelėkite, norėdami matyti oro stebėjimo ir prognozės.

Norėdami pakeisti žemėlapį: spustelėkite ant žalios mygtukų su juodo kryžiaus žemyn,; žalią mygtuką su brūkšneliu, jei norite nutolinti; arba žalių rodyklių gretimoms žemėlapius.


METAR-TAF: